Time;durP1;ratioP1;P1;durP2;ratioP2;P2;SDS_P1;SDS_P2;PMS_P1;PMS_P2;Temp;Humidity;BMP_temperature;BMP_pressure;BME280_temperature;BME280_humidity;BME280_pressure;Samples;Min_cycle;Max_cycle;Signal;HPM_P1;HPM_P2
2023/10/16 00:01:27;;;;;;;4.18;1.00;;;8.70;99.90;;;;;;5073112;28;20544;-53
2023/10/16 00:03:55;;;;;;;4.85;1.30;;;8.80;99.90;;;;;;5073421;28;20469;-51
2023/10/16 00:06:21;;;;;;;3.25;0.90;;;8.80;99.90;;;;;;5072826;28;20016;-50
2023/10/16 00:08:47;;;;;;;1.98;1.20;;;8.80;99.90;;;;;;5072685;28;20370;-48
2023/10/16 00:11:17;;;;;;;4.05;0.95;;;8.80;99.90;;;;;;5058804;28;20029;-50
2023/10/16 00:13:47;;;;;;;3.45;1.63;;;8.80;99.90;;;;;;5072917;28;20062;-54
2023/10/16 00:16:17;;;;;;;1.50;1.02;;;8.90;99.90;;;;;;5072926;28;20489;-50
2023/10/16 00:18:45;;;;;;;2.50;1.35;;;8.90;99.90;;;;;;5072782;28;20507;-51
2023/10/16 00:21:11;;;;;;;1.85;0.77;;;8.90;99.90;;;;;;5073148;28;20048;-52
2023/10/16 00:23:40;;;;;;;1.60;1.13;;;8.90;99.90;;;;;;5072603;28;20488;-54
2023/10/16 00:26:10;;;;;;;4.72;1.52;;;8.90;99.90;;;;;;5072498;28;20025;-53
2023/10/16 00:28:36;;;;;;;3.40;1.30;;;8.90;99.90;;;;;;5054827;28;20020;-51
2023/10/16 00:31:05;;;;;;;3.78;1.42;;;8.90;99.90;;;;;;5072783;28;20027;-56
2023/10/16 00:33:33;;;;;;;4.97;0.98;;;8.90;99.90;;;;;;5072459;28;20024;-62
2023/10/16 00:36:00;;;;;;;3.08;1.58;;;8.90;99.90;;;;;;5054372;28;20510;-49
2023/10/16 00:38:25;;;;;;;9.95;1.63;;;8.90;99.90;;;;;;5072616;28;20016;-56
2023/10/16 00:43:36;;;;;;;6.47;1.70;;;9.00;99.90;;;;;;5052623;28;20401;-62
2023/10/16 00:46:08;;;;;;;2.25;1.30;;;9.00;99.90;;;;;;5052849;28;20021;-51
2023/10/16 00:48:37;;;;;;;2.80;1.17;;;9.00;99.90;;;;;;5034798;28;20496;-51
2023/10/16 00:51:09;;;;;;;;;;;9.00;99.90;;;;;;5062072;28;20020;-52
2023/10/16 00:53:40;;;;;;;4.15;1.48;;;8.90;99.90;;;;;;5054685;28;20304;-53
2023/10/16 00:56:13;;;;;;;3.90;1.60;;;8.90;99.90;;;;;;5054267;28;20384;-49
2023/10/16 00:58:41;;;;;;;6.05;1.42;;;8.90;99.90;;;;;;5054858;28;20065;-53
2023/10/16 01:01:12;;;;;;;;;;;8.90;99.90;;;;;;5062412;28;20100;-54
2023/10/16 01:03:40;;;;;;;6.38;1.88;;;8.90;99.90;;;;;;5071871;28;19908;-53
2023/10/16 01:06:19;;;;;;;2.22;1.83;;;8.90;99.90;;;;;;5071415;28;20036;-52
2023/10/16 01:08:51;;;;;;;3.92;1.88;;;8.90;99.90;;;;;;5053026;28;20075;-52
2023/10/16 01:11:22;;;;;;;1.35;1.25;;;8.80;99.90;;;;;;5072141;28;20500;-49
2023/10/16 01:13:48;;;;;;;3.97;1.58;;;8.80;99.90;;;;;;5072282;28;20035;-53
2023/10/16 01:16:18;;;;;;;2.65;1.60;;;8.80;99.90;;;;;;5071923;28;20032;-50
2023/10/16 01:18:45;;;;;;;11.75;1.83;;;8.80;99.90;;;;;;5072301;28;20025;-49
2023/10/16 01:21:13;;;;;;;3.42;1.70;;;8.80;99.90;;;;;;5072239;28;20465;-45
2023/10/16 01:23:41;;;;;;;3.28;1.52;;;8.80;99.90;;;;;;5069590;28;20021;-52
2023/10/16 01:26:08;;;;;;;2.67;1.95;;;8.80;99.90;;;;;;5071870;28;20025;-53
2023/10/16 01:28:34;;;;;;;2.42;1.27;;;8.80;99.90;;;;;;5072188;28;20035;-52
2023/10/16 01:31:00;;;;;;;2.40;1.40;;;8.80;99.90;;;;;;5072510;28;20021;-53
2023/10/16 01:33:26;;;;;;;2.75;1.40;;;8.80;99.90;;;;;;5072291;28;20419;-54
2023/10/16 01:35:52;;;;;;;5.88;1.20;;;8.90;99.90;;;;;;5072048;28;20028;-54
2023/10/16 01:38:18;;;;;;;4.35;1.65;;;8.90;99.90;;;;;;5071925;28;20387;-53
2023/10/16 01:43:30;;;;;;;5.47;1.75;;;8.90;99.90;;;;;;5058420;28;20033;-54
2023/10/16 01:46:00;;;;;;;5.25;2.92;;;8.90;99.90;;;;;;5060928;28;20070;-53
2023/10/16 01:48:29;;;;;;;2.83;1.65;;;8.90;99.90;;;;;;5074722;28;20111;-51
2023/10/16 01:51:00;;;;;;;3.53;1.75;;;9.00;99.90;;;;;;5075667;28;20397;-52
2023/10/16 01:53:32;;;;;;;2.63;1.48;;;9.00;99.90;;;;;;5075666;28;20100;-54
2023/10/16 01:55:58;;;;;;;2.67;1.67;;;9.00;99.90;;;;;;5075495;28;20028;-55
2023/10/16 01:58:25;;;;;;;4.30;2.00;;;9.00;99.90;;;;;;5075335;28;20025;-51
2023/10/16 02:00:54;;;;;;;1.70;1.52;;;9.00;99.90;;;;;;5071848;28;20466;-53
2023/10/16 02:03:22;;;;;;;8.02;2.30;;;9.00;99.90;;;;;;5066569;28;20103;-46
2023/10/16 02:05:48;;;;;;;3.38;1.48;;;9.00;99.90;;;;;;5075681;28;20025;-53
2023/10/16 02:08:14;;;;;;;1.52;1.23;;;9.00;99.90;;;;;;5075000;28;20037;-53
2023/10/16 02:10:41;;;;;;;2.65;1.60;;;9.10;99.90;;;;;;5075324;28;20021;-53
2023/10/16 02:13:08;;;;;;;2.20;1.60;;;9.10;99.90;;;;;;5074742;28;20032;-53
2023/10/16 02:15:36;;;;;;;4.77;1.53;;;9.10;99.90;;;;;;5094386;28;20035;-55
2023/10/16 02:18:05;;;;;;;4.60;1.83;;;9.10;99.90;;;;;;5095411;28;20541;-56
2023/10/16 02:20:31;;;;;;;3.00;1.27;;;9.10;99.90;;;;;;5095388;28;20027;-51
2023/10/16 02:22:59;;;;;;;5.93;1.65;;;9.10;99.90;;;;;;5078246;28;20029;-51
2023/10/16 02:25:25;;;;;;;;;;;9.00;99.90;;;;;;5075251;28;20431;-47
2023/10/16 02:27:51;;;;;;;3.15;1.38;;;9.00;99.90;;;;;;5074409;28;19916;-54
2023/10/16 02:32:53;;;;;;;3.70;1.33;;;9.00;99.90;;;;;;5075059;28;20064;-53
2023/10/16 02:35:22;;;;;;;1.33;1.23;;;9.00;99.90;;;;;;5074822;28;20032;-50
2023/10/16 02:37:53;;;;;;;1.20;1.10;;;9.00;99.90;;;;;;5074593;28;20036;-52
2023/10/16 02:40:20;;;;;;;3.08;1.42;;;9.10;99.90;;;;;;5074626;28;20047;-53
2023/10/16 02:42:51;;;;;;;4.20;1.33;;;9.10;99.90;;;;;;5074255;28;20021;-53
2023/10/16 02:48:09;;;;;;;1.73;1.40;;;9.10;99.90;;;;;;5074756;28;20043;-52
2023/10/16 02:50:35;;;;;;;3.72;1.10;;;9.10;99.90;;;;;;5074631;28;20497;-51
2023/10/16 02:53:04;;;;;;;0.80;0.80;;;9.10;99.90;;;;;;5074373;28;20064;-53
2023/10/16 02:55:30;;;;;;;5.13;1.27;;;9.10;99.90;;;;;;5074505;28;20021;-53
2023/10/16 02:57:57;;;;;;;2.53;1.23;;;9.10;99.90;;;;;;5073851;28;20067;-54
2023/10/16 03:00:35;;;;;;;3.00;1.55;;;9.10;99.90;;;;;;5074305;28;20034;-53
2023/10/16 03:03:00;;;;;;;3.22;2.00;;;9.10;99.90;;;;;;5072514;28;20493;-62
2023/10/16 03:05:28;;;;;;;2.10;1.30;;;9.20;99.90;;;;;;5074260;28;20078;-50
2023/10/16 03:07:54;;;;;;;3.05;1.20;;;9.20;99.90;;;;;;5056073;28;20542;-53
2023/10/16 03:10:24;;;;;;;3.28;1.10;;;9.20;99.90;;;;;;5074446;28;20025;-53
2023/10/16 03:12:50;;;;;;;3.53;1.40;;;9.10;99.90;;;;;;5073879;28;20477;-51
2023/10/16 03:15:29;;;;;;;1.48;1.33;;;9.10;99.90;;;;;;5074069;28;20032;-50
2023/10/16 03:17:55;;;;;;;3.90;1.00;;;9.10;99.90;;;;;;5056257;28;20392;-52
2023/10/16 03:20:35;;;;;;;1.73;1.35;;;9.10;99.90;;;;;;5053991;28;20075;-53
2023/10/16 03:23:04;;;;;;;1.48;0.90;;;9.10;99.90;;;;;;5068102;28;20029;-52
2023/10/16 03:25:39;;;;;;;3.83;1.38;;;9.00;99.90;;;;;;5073749;28;20020;-48
2023/10/16 03:28:11;;;;;;;6.22;1.45;;;9.00;99.90;;;;;;5073614;28;20530;-53
2023/10/16 03:30:39;;;;;;;5.07;1.67;;;9.00;99.90;;;;;;5073772;28;20485;-52
2023/10/16 03:33:05;;;;;;;1.88;1.15;;;9.00;99.90;;;;;;5073763;28;20035;-52
2023/10/16 03:35:31;;;;;;;3.42;1.38;;;9.10;99.90;;;;;;5055668;28;20516;-51
2023/10/16 03:37:58;;;;;;;1.63;1.17;;;9.10;99.90;;;;;;5073398;28;20102;-52
2023/10/16 03:40:25;;;;;;;2.80;1.45;;;9.10;99.90;;;;;;5073363;28;20496;-53
2023/10/16 03:42:51;;;;;;;4.20;1.80;;;9.10;99.90;;;;;;5073445;28;20362;-52
2023/10/16 03:45:20;;;;;;;1.45;1.10;;;9.10;99.90;;;;;;5073368;28;20457;-53
2023/10/16 03:47:50;;;;;;;4.30;1.50;;;9.10;99.90;;;;;;5073395;28;20028;-53
2023/10/16 03:50:23;;;;;;;1.88;1.00;;;9.20;99.90;;;;;;5073690;28;20103;-54
2023/10/16 03:52:49;;;;;;;1.92;1.33;;;9.20;99.90;;;;;;5073112;28;20021;-50
2023/10/16 03:55:24;;;;;;;4.55;1.98;;;9.20;99.90;;;;;;5073345;28;20104;-50
2023/10/16 03:57:53;;;;;;;4.43;1.42;;;9.20;99.90;;;;;;5069366;28;20437;-53
2023/10/16 04:00:25;;;;;;;0.75;0.75;;;9.20;99.90;;;;;;5053281;28;20393;-52
2023/10/16 04:02:51;;;;;;;1.60;1.33;;;9.20;99.90;;;;;;5071065;28;20024;-52
2023/10/16 04:05:41;;;;;;;6.50;1.27;;;9.30;99.90;;;;;;5051688;28;20078;-50
2023/10/16 04:08:14;;;;;;;2.45;2.25;;;9.30;99.90;;;;;;5071999;28;20497;-53
2023/10/16 04:10:47;;;;;;;3.83;1.15;;;9.30;99.90;;;;;;5072575;28;20048;-53
2023/10/16 04:13:14;;;;;;;2.35;1.58;;;9.30;99.90;;;;;;5072470;28;20036;-46
2023/10/16 04:18:17;;;;;;;2.80;1.08;;;9.30;99.90;;;;;;5072907;28;20036;-52
2023/10/16 04:20:43;;;;;;;2.25;1.75;;;9.40;99.90;;;;;;5073238;28;20078;-50
2023/10/16 04:29:25;;;;;;;1.88;0.93;;;9.30;99.90;;;;;;5073005;28;20487;-53
2023/10/16 04:31:44;;;;;;;1.58;1.13;;;9.40;99.90;;;;;;5069505;28;20477;-45
2023/10/16 04:42:50;;;;;;;3.28;1.70;;;9.30;99.90;;;;;;5069225;28;20039;-53
2023/10/16 04:45:25;;;;;;;2.35;1.65;;;9.30;99.90;;;;;;5072738;28;20085;-53
2023/10/16 04:53:08;;;;;;;4.03;1.33;;;9.40;99.90;;;;;;5052660;28;20147;-52
2023/10/16 05:11:27;;;;;;;3.53;1.20;;;9.50;99.90;;;;;;5072414;28;20032;-51
2023/10/16 05:14:04;;;;;;;2.10;1.40;;;9.50;99.90;;;;;;5072123;28;20539;-53
2023/10/16 05:20:51;;;;;;;7.35;1.73;;;9.50;99.90;;;;;;5072340;28;20471;-55
2023/10/16 06:16:45;;;;;;;4.18;2.40;;;9.30;99.90;;;;;;5075295;28;20082;-40
2023/10/16 06:19:15;;;;;;;3.90;1.75;;;9.40;99.90;;;;;;5075173;28;20020;-43
2023/10/16 06:21:57;;;;;;;2.40;2.20;;;9.40;99.90;;;;;;5073029;28;20040;-40
2023/10/16 06:24:33;;;;;;;1.98;1.83;;;9.50;99.90;;;;;;5057265;28;20024;-44
2023/10/16 06:27:01;;;;;;;4.90;2.05;;;9.50;99.90;;;;;;5057073;28;20082;-39
2023/10/16 06:29:40;;;;;;;4.60;1.50;;;9.50;99.90;;;;;;5074230;28;20111;-40
2023/10/16 06:32:07;;;;;;;4.63;2.15;;;9.50;99.90;;;;;;5058921;28;20029;-43
2023/10/16 06:34:34;;;;;;;3.15;2.00;;;9.60;99.90;;;;;;5056429;28;20051;-41
2023/10/16 06:37:05;;;;;;;2.88;2.28;;;9.60;99.90;;;;;;5074482;28;20062;-41
2023/10/16 06:39:37;;;;;;;5.60;1.90;;;9.60;99.90;;;;;;5074047;28;20447;-43
2023/10/16 06:42:04;;;;;;;2.17;1.80;;;9.60;99.90;;;;;;5074313;28;20112;-41
2023/10/16 06:44:34;;;;;;;2.78;1.63;;;9.70;99.90;;;;;;5074697;28;20047;-45
2023/10/16 06:47:00;;;;;;;1.73;1.52;;;9.70;99.90;;;;;;5075006;28;20414;-41
2023/10/16 06:49:35;;;;;;;6.03;1.92;;;9.70;99.90;;;;;;5074687;28;20493;-43
2023/10/16 06:52:04;;;;;;;2.28;1.70;;;9.70;99.90;;;;;;5074656;28;20531;-42
2023/10/16 06:54:37;;;;;;;2.90;1.77;;;9.80;99.90;;;;;;5074473;28;20092;-43
2023/10/16 06:57:23;;;;;;;2.92;1.73;;;9.80;99.90;;;;;;5074417;28;20035;-43
2023/10/16 06:59:55;;;;;;;5.93;1.77;;;9.80;99.90;;;;;;5069678;28;20025;-42
2023/10/16 07:02:21;;;;;;;4.78;1.75;;;9.80;99.90;;;;;;5071996;28;20381;-45
2023/10/16 07:04:47;;;;;;;2.58;1.63;;;9.80;99.90;;;;;;5071558;28;20024;-47
2023/10/16 07:07:16;;;;;;;4.47;1.92;;;9.90;99.90;;;;;;5054556;28;20025;-42
2023/10/16 07:09:49;;;;;;;1.60;1.50;;;9.90;99.90;;;;;;5055350;28;20032;-45
2023/10/16 07:12:18;;;;;;;2.78;1.90;;;9.90;99.90;;;;;;5071627;28;20047;-43
2023/10/16 07:14:55;;;;;;;5.93;2.00;;;10.00;99.90;;;;;;5074107;28;20107;-43
2023/10/16 07:17:24;;;;;;;2.80;1.98;;;10.00;99.90;;;;;;5074084;28;20020;-43
2023/10/16 07:19:51;;;;;;;5.38;1.77;;;10.00;99.90;;;;;;5056236;28;20444;-46
2023/10/16 07:22:17;;;;;;;6.82;2.47;;;10.00;99.90;;;;;;5073780;28;20087;-44
2023/10/16 07:24:43;;;;;;;4.22;1.95;;;10.10;99.90;;;;;;5073740;28;20366;-44
2023/10/16 07:27:14;;;;;;;3.92;1.80;;;10.10;99.90;;;;;;5072750;28;20021;-45
2023/10/16 07:29:41;;;;;;;4.32;1.73;;;10.10;99.90;;;;;;5073893;28;20120;-47
2023/10/16 07:32:08;;;;;;;4.95;1.90;;;10.20;99.90;;;;;;5073631;28;20449;-42
2023/10/16 07:34:36;;;;;;;4.25;1.70;;;10.30;99.90;;;;;;5073635;28;20138;-41
2023/10/16 07:37:04;;;;;;;6.35;1.30;;;10.30;99.90;;;;;;5055073;28;20040;-44
2023/10/16 07:39:30;;;;;;;;;;;10.30;99.90;;;;;;5073674;28;20044;-41
2023/10/16 07:41:56;;;;;;;1.30;1.20;;;10.40;99.90;;;;;;5073404;28;20328;-50
2023/10/16 07:44:26;;;;;;;36.85;6.25;;;10.40;99.90;;;;;;5073542;28;20021;-40
2023/10/16 07:46:53;;;;;;;7.32;2.72;;;10.50;99.90;;;;;;5072831;28;20073;-41
2023/10/16 07:49:25;;;;;;;11.50;1.92;;;10.60;99.90;;;;;;5073330;28;20024;-41
2023/10/16 07:51:52;;;;;;;14.45;4.57;;;10.60;99.90;;;;;;5073141;28;20063;-54
2023/10/16 07:54:20;;;;;;;5.43;2.10;;;10.70;99.90;;;;;;5055461;28;20078;-54
2023/10/16 07:56:49;;;;;;;2.75;1.60;;;10.70;99.90;;;;;;5055205;28;20460;-53
2023/10/16 07:59:20;;;;;;;5.47;2.05;;;10.80;99.90;;;;;;5073170;28;20032;-54
2023/10/16 08:01:52;;;;;;;2.88;1.70;;;10.80;99.90;;;;;;5073226;28;20108;-54
2023/10/16 08:07:04;;;;;;;3.97;1.50;;;10.90;99.90;;;;;;5053267;28;20032;-54
2023/10/16 08:09:48;;;;;;;2.70;1.70;;;11.00;99.90;;;;;;5056655;28;20481;-54
2023/10/16 08:12:35;;;;;;;2.63;1.70;;;11.10;99.90;;;;;;5072315;28;20546;-54
2023/10/16 08:15:14;;;;;;;4.10;2.28;;;11.20;99.90;;;;;;5072848;28;20059;-53
2023/10/16 08:17:40;;;;;;;2.70;1.45;;;11.20;99.90;;;;;;5072920;28;20028;-51
2023/10/16 08:20:09;;;;;;;2.35;1.88;;;11.30;99.90;;;;;;5073019;28;20062;-48
2023/10/16 08:22:35;;;;;;;5.60;2.00;;;11.30;99.90;;;;;;5072896;28;20461;-49
2023/10/16 08:25:01;;;;;;;3.42;1.63;;;11.40;99.90;;;;;;5073100;28;20028;-50
2023/10/16 08:27:52;;;;;;;2.33;1.60;;;11.40;99.90;;;;;;5072788;28;20020;-50
2023/10/16 08:30:33;;;;;;;2.97;1.40;;;11.40;99.90;;;;;;5072795;28;20099;-52
2023/10/16 08:33:08;;;;;;;1.65;1.55;;;11.50;99.90;;;;;;5072777;28;20027;-51
2023/10/16 08:35:41;;;;;;;1.20;1.10;;;11.40;99.90;;;;;;5072647;28;20028;-52
2023/10/16 08:38:20;;;;;;;0.90;0.90;;;11.50;99.90;;;;;;5072775;28;20040;-50
2023/10/16 08:40:57;;;;;;;5.20;1.10;;;11.60;99.90;;;;;;5072679;28;20040;-51
2023/10/16 08:43:39;;;;;;;2.90;1.25;;;11.60;99.90;;;;;;5071315;28;20025;-51
2023/10/16 08:46:18;;;;;;;6.22;1.40;;;11.70;99.90;;;;;;5072393;28;20029;-70
2023/10/16 08:48:48;;;;;;;1.45;0.98;;;11.70;99.90;;;;;;5055712;28;20026;-52
2023/10/16 08:51:17;;;;;;;3.30;1.23;;;11.80;99.90;;;;;;5072405;28;20392;-53
2023/10/16 08:53:44;;;;;;;5.03;0.90;;;11.80;99.90;;;;;;5070269;28;20086;-53
2023/10/16 08:56:12;;;;;;;2.88;1.40;;;11.90;99.90;;;;;;5070624;28;20485;-51
2023/10/16 08:58:44;;;;;;;2.22;1.23;;;12.00;99.90;;;;;;5076639;28;20024;-50
2023/10/16 09:01:12;;;;;;;4.03;0.80;;;12.10;99.90;;;;;;5076630;28;20082;-50
2023/10/16 09:04:05;;;;;;;4.65;1.55;;;12.20;99.90;;;;;;5076336;28;20025;-50
2023/10/16 09:06:36;;;;;;;1.35;0.80;;;12.30;99.90;;;;;;5076363;28;20082;-56
2023/10/16 09:09:11;;;;;;;5.45;1.33;;;12.40;99.90;;;;;;5076257;28;20021;-62
2023/10/16 09:11:39;;;;;;;1.15;0.90;;;12.50;99.90;;;;;;5076669;28;20508;-53
2023/10/16 09:14:07;;;;;;;;;;;12.50;99.90;;;;;;5077107;28;20044;-53
2023/10/16 09:16:34;;;;;;;2.58;1.30;;;12.50;99.90;;;;;;5075912;28;19920;-54
2023/10/16 09:19:06;;;;;;;6.67;0.90;;;12.60;99.90;;;;;;5076245;28;20404;-51
2023/10/16 09:21:38;;;;;;;1.70;0.85;;;12.70;99.90;;;;;;5076242;28;20052;-51
2023/10/16 09:24:05;;;;;;;1.35;0.52;;;12.80;99.90;;;;;;5058104;28;20540;-53
2023/10/16 09:26:38;;;;;;;1.00;0.43;;;12.80;99.90;;;;;;5076216;28;20036;-52
2023/10/16 09:29:14;;;;;;;2.97;0.60;;;12.80;99.90;;;;;;5076094;28;20024;-52
2023/10/16 09:31:43;;;;;;;0.73;0.43;;;12.80;99.90;;;;;;5076385;28;20029;-52
2023/10/16 09:34:10;;;;;;;0.40;0.40;;;12.80;99.90;;;;;;5058007;28;20028;-49
2023/10/16 09:36:37;;;;;;;1.17;0.63;;;12.70;99.90;;;;;;5075946;28;20074;-51
2023/10/16 09:39:16;;;;;;;0.38;0.38;;;12.80;99.90;;;;;;5075470;28;20051;-51
2023/10/16 09:41:43;;;;;;;0.52;0.40;;;12.80;99.90;;;;;;5075930;28;20024;-52
2023/10/16 09:44:23;;;;;;;2.90;0.47;;;12.90;99.90;;;;;;5075851;28;20104;-54
2023/10/16 09:46:53;;;;;;;0.63;0.30;;;13.00;99.90;;;;;;5075786;28;20029;-51
2023/10/16 09:49:23;;;;;;;2.20;0.50;;;13.10;99.90;;;;;;5076081;28;20037;-51
2023/10/16 09:52:03;;;;;;;2.67;0.40;;;13.20;99.90;;;;;;5075654;28;20064;-52
2023/10/16 09:54:30;;;;;;;0.40;0.38;;;13.20;99.90;;;;;;5075704;28;20460;-51
2023/10/16 09:57:00;;;;;;;0.30;0.30;;;13.20;99.90;;;;;;5075857;28;20024;-52
2023/10/16 09:59:33;;;;;;;5.88;1.52;;;13.30;99.90;;;;;;5075522;28;20036;-53
2023/10/16 10:02:16;;;;;;;2.17;0.35;;;13.20;99.90;;;;;;5075874;28;20024;-53
2023/10/16 10:04:49;;;;;;;2.33;0.38;;;13.20;99.90;;;;;;5075406;28;20031;-52
2023/10/16 10:07:19;;;;;;;1.98;0.82;;;13.10;99.90;;;;;;5057097;28;20024;-52
2023/10/16 10:09:48;;;;;;;1.45;0.47;;;13.10;99.90;;;;;;5075145;28;20036;-54
2023/10/16 10:12:47;;;;;;;5.07;0.65;;;13.10;99.90;;;;;;5075313;28;20111;-54
2023/10/16 10:15:30;;;;;;;2.85;0.40;;;13.10;99.90;;;;;;5075202;28;20048;-49
2023/10/16 10:18:01;;;;;;;6.22;0.47;;;13.00;99.90;;;;;;5075054;28;20032;-54
2023/10/16 10:20:31;;;;;;;11.45;0.80;;;13.10;99.90;;;;;;5075063;28;20400;-54
2023/10/16 10:23:08;;;;;;;2.55;0.40;;;13.20;99.90;;;;;;5075072;28;20448;-58
2023/10/16 10:25:36;;;;;;;3.15;0.32;;;13.30;99.90;;;;;;5074987;28;20024;-55
2023/10/16 10:28:09;;;;;;;0.77;0.38;;;13.50;99.90;;;;;;5075069;28;20028;-60
2023/10/16 10:30:49;;;;;;;3.75;0.35;;;13.60;99.90;;;;;;5075291;28;20036;-55
2023/10/16 10:33:37;;;;;;;4.55;0.60;;;13.50;99.90;;;;;;5057013;28;20086;-48
2023/10/16 10:36:28;;;;;;;4.03;0.80;;;13.50;99.90;;;;;;5075162;28;20032;-53
2023/10/16 10:42:03;;;;;;;2.10;0.47;;;13.70;99.90;;;;;;5074734;28;20032;-52
2023/10/16 10:44:32;;;;;;;0.75;0.45;;;13.70;99.90;;;;;;5074731;28;20063;-52
2023/10/16 10:47:02;;;;;;;4.28;0.90;;;13.70;99.90;;;;;;5074714;28;20111;-52
2023/10/16 10:49:35;;;;;;;1.42;0.30;;;13.60;99.90;;;;;;5056588;28;20029;-52
2023/10/16 10:52:06;;;;;;;3.28;0.13;;;13.70;99.90;;;;;;5074556;28;20473;-52
2023/10/16 10:54:42;;;;;;;0.35;0.20;;;13.70;99.90;;;;;;5074477;28;20235;-51
2023/10/16 10:57:18;;;;;;;1.05;0.32;;;13.80;99.90;;;;;;5074409;28;20040;-52
2023/10/16 10:59:48;;;;;;;2.90;0.30;;;13.90;99.90;;;;;;5074348;28;20036;-50
2023/10/16 11:04:53;;;;;;;2.25;0.40;;;14.10;99.90;;;;;;5074630;28;20105;-51
2023/10/16 11:07:28;;;;;;;0.73;0.70;;;14.10;99.90;;;;;;5074426;28;20470;-52
2023/10/16 11:09:57;;;;;;;0.73;0.35;;;14.10;99.90;;;;;;5074496;28;20020;-52
2023/10/16 11:12:26;;;;;;;3.33;0.57;;;14.10;99.90;;;;;;5074140;28;20032;-51
2023/10/16 11:14:54;;;;;;;0.28;0.20;;;14.10;99.90;;;;;;5073985;28;20031;-45
2023/10/16 11:17:52;;;;;;;1.23;0.32;;;14.30;99.90;;;;;;5074238;28;20078;-51
2023/10/16 11:20:29;;;;;;;0.40;0.20;;;14.40;99.90;;;;;;5054484;28;20052;-52
2023/10/16 11:22:58;;;;;;;1.98;0.43;;;14.60;99.90;;;;;;5074184;28;20047;-54
2023/10/16 11:25:30;;;;;;;2.72;0.30;;;14.60;99.90;;;;;;5074418;28;20032;-51
2023/10/16 11:28:07;;;;;;;1.10;0.50;;;14.50;99.90;;;;;;5073813;28;20504;-53
2023/10/16 11:30:38;;;;;;;2.35;0.40;;;14.50;99.90;;;;;;5074123;28;20037;-54
2023/10/16 11:33:04;;;;;;;1.33;0.50;;;14.50;99.90;;;;;;5073948;28;20077;-54
2023/10/16 11:35:34;;;;;;;2.30;0.38;;;14.60;99.90;;;;;;5073962;28;20465;-53
2023/10/16 11:38:04;;;;;;;3.75;0.28;;;14.70;99.90;;;;;;5073720;28;20032;-55
2023/10/16 11:40:39;;;;;;;5.35;0.40;;;14.60;99.90;;;;;;5073529;28;20048;-53
2023/10/16 11:43:12;;;;;;;0.93;0.47;;;14.50;99.90;;;;;;5073824;28;20028;-54
2023/10/16 11:45:57;;;;;;;3.50;0.40;;;14.40;99.90;;;;;;5073551;28;20035;-55
2023/10/16 11:53:41;;;;;;;3.85;1.15;;;14.10;99.90;;;;;;5073750;28;20047;-54
2023/10/16 11:56:09;;;;;;;2.85;0.32;;;13.90;99.90;;;;;;5073362;28;20107;-53
2023/10/16 11:58:35;;;;;;;0.80;0.60;;;13.80;99.90;;;;;;5073478;28;20028;-54
2023/10/16 12:01:11;;;;;;;0.93;0.28;;;13.80;99.90;;;;;;5073307;28;20522;-54
2023/10/16 12:03:40;;;;;;;0.65;0.30;;;13.80;99.90;;;;;;5055342;28;20024;-51
2023/10/16 12:06:13;;;;;;;0.45;0.20;;;13.80;99.90;;;;;;5073471;28;20349;-53
2023/10/16 12:08:40;;;;;;;2.13;0.20;;;13.80;99.90;;;;;;5073148;28;20477;-55
2023/10/16 12:11:07;;;;;;;1.20;0.43;;;13.80;99.90;;;;;;5073050;28;20029;-53
2023/10/16 12:13:33;;;;;;;2.00;0.45;;;13.80;99.90;;;;;;5073029;28;20035;-54
2023/10/16 12:15:59;;;;;;;0.75;0.30;;;13.80;99.90;;;;;;5073045;28;20021;-51
2023/10/16 12:18:31;;;;;;;2.92;0.40;;;13.80;99.90;;;;;;5072926;28;20036;-55
2023/10/16 12:21:06;;;;;;;3.63;0.60;;;13.80;99.90;;;;;;5073233;28;20036;-55
2023/10/16 12:23:36;;;;;;;1.85;0.35;;;13.80;99.90;;;;;;5073168;28;20100;-54
2023/10/16 12:26:03;;;;;;;4.45;0.80;;;13.80;99.90;;;;;;5072826;28;20082;-55
2023/10/16 12:28:32;;;;;;;3.85;0.77;;;13.90;99.90;;;;;;5072889;28;20029;-52
2023/10/16 12:30:58;;;;;;;3.15;0.40;;;13.90;99.90;;;;;;5072579;28;20131;-52
2023/10/16 12:33:27;;;;;;;1.45;0.50;;;14.00;99.90;;;;;;5054843;28;20116;-55
2023/10/16 12:35:55;;;;;;;2.05;0.82;;;14.00;99.90;;;;;;5072792;28;20032;-54
2023/10/16 12:38:24;;;;;;;2.85;0.38;;;13.90;99.90;;;;;;5072611;28;20028;-55
2023/10/16 12:40:53;;;;;;;1.90;0.40;;;13.90;99.90;;;;;;5072608;28;20056;-57
2023/10/16 12:43:20;;;;;;;3.30;0.30;;;13.90;99.90;;;;;;5072985;28;20032;-52
2023/10/16 12:45:47;;;;;;;2.45;0.98;;;13.90;99.90;;;;;;5072692;28;20025;-54
2023/10/16 12:48:13;;;;;;;1.33;0.47;;;13.90;99.90;;;;;;5072684;28;20032;-55
2023/10/16 12:50:39;;;;;;;3.97;0.52;;;14.00;99.90;;;;;;5073036;28;20093;-54
2023/10/16 12:53:05;;;;;;;3.20;0.50;;;14.00;99.90;;;;;;5072638;28;20029;-45
2023/10/16 12:55:31;;;;;;;3.38;0.30;;;14.10;99.90;;;;;;5072799;28;20499;-50
2023/10/16 12:57:57;;;;;;;2.10;0.30;;;14.10;99.90;;;;;;5072694;28;20025;-53
2023/10/16 13:00:23;;;;;;;4.05;0.70;;;14.10;99.90;;;;;;5072808;28;20020;-51
2023/10/16 13:02:51;;;;;;;5.97;0.40;;;14.10;99.90;;;;;;5072493;28;20028;-51
2023/10/16 13:05:24;;;;;;;0.80;0.25;;;14.10;99.90;;;;;;5072382;28;20027;-51
2023/10/16 13:07:50;;;;;;;3.03;0.43;;;14.10;99.90;;;;;;5072803;28;20025;-52
2023/10/16 13:10:20;;;;;;;0.77;0.70;;;14.10;99.90;;;;;;5072334;28;20438;-53
2023/10/16 13:12:46;;;;;;;2.42;0.68;;;14.20;99.90;;;;;;5072578;28;20024;-53
2023/10/16 13:15:16;;;;;;;1.55;0.35;;;14.30;99.90;;;;;;5072324;28;20202;-53
2023/10/16 13:17:44;;;;;;;3.72;0.38;;;14.30;99.90;;;;;;5072239;28;20028;-52
2023/10/16 13:20:17;;;;;;;3.50;0.52;;;14.30;99.90;;;;;;5072344;28;20138;-52
2023/10/16 13:22:49;;;;;;;2.88;0.70;;;14.30;99.90;;;;;;5054294;28;20392;-52
2023/10/16 13:25:17;;;;;;;0.57;0.17;;;14.30;99.90;;;;;;5072188;28;20104;-52
2023/10/16 13:27:46;;;;;;;1.70;0.38;;;14.40;99.90;;;;;;5072266;28;20107;-55
2023/10/16 13:30:12;;;;;;;3.45;0.47;;;14.40;99.90;;;;;;5072230;28;20097;-48
2023/10/16 13:32:41;;;;;;;1.10;0.40;;;14.50;99.90;;;;;;5072467;28;20103;-54
2023/10/16 13:35:12;;;;;;;2.45;0.40;;;14.60;99.90;;;;;;5072205;28;20063;-54
2023/10/16 13:37:44;;;;;;;1.98;0.32;;;14.60;99.90;;;;;;5072199;28;20443;-54
2023/10/16 13:40:27;;;;;;;2.47;0.68;;;14.60;99.90;;;;;;5072117;28;20051;-52
2023/10/16 13:42:55;;;;;;;1.17;0.38;;;14.40;99.90;;;;;;5072523;28;20078;-54
2023/10/16 13:45:21;;;;;;;1.35;0.30;;;14.30;99.90;;;;;;5075836;28;20012;-53
2023/10/16 13:47:49;;;;;;;3.63;0.32;;;14.20;99.90;;;;;;5076004;28;20389;-53
2023/10/16 13:50:25;;;;;;;1.42;0.45;;;14.20;99.90;;;;;;5075632;28;20027;-54
2023/10/16 13:52:52;;;;;;;3.90;0.77;;;14.30;99.90;;;;;;5075704;28;20099;-54
2023/10/16 13:55:21;;;;;;;0.45;0.40;;;14.30;99.90;;;;;;5075652;28;20048;-53
2023/10/16 13:57:48;;;;;;;0.88;0.40;;;14.20;99.90;;;;;;5075551;28;20414;-54
2023/10/16 14:03:10;;;;;;;4.40;0.80;;;14.30;99.90;;;;;;5075834;28;20102;-53
2023/10/16 14:05:41;;;;;;;2.42;0.70;;;14.30;99.90;;;;;;5075375;28;20025;-52
2023/10/16 14:08:14;;;;;;;1.83;0.65;;;14.30;99.90;;;;;;5075298;28;20480;-50
2023/10/16 14:10:49;;;;;;;2.72;0.50;;;14.20;99.90;;;;;;5075240;28;20029;-53
2023/10/16 14:13:19;;;;;;;3.28;0.73;;;14.20;99.90;;;;;;5075127;28;20070;-54
2023/10/16 14:15:49;;;;;;;4.60;0.80;;;14.20;99.90;;;;;;5075233;28;20028;-54
2023/10/16 14:18:24;;;;;;;3.83;0.50;;;14.10;99.90;;;;;;5075186;28;20025;-51
2023/10/16 14:20:50;;;;;;;5.70;0.85;;;14.10;99.90;;;;;;5075160;28;20040;-54
2023/10/16 14:23:18;;;;;;;2.75;0.50;;;14.10;99.90;;;;;;5075002;28;20056;-55
2023/10/16 14:25:48;;;;;;;4.45;0.50;;;14.10;99.90;;;;;;5075054;28;20020;-53
2023/10/16 14:28:27;;;;;;;1.90;0.52;;;14.00;99.90;;;;;;5074946;28;20500;-63
2023/10/16 14:30:58;;;;;;;0.82;0.40;;;14.00;99.90;;;;;;5075293;28;20024;-54
2023/10/16 14:33:28;;;;;;;1.92;0.30;;;14.00;99.90;;;;;;5056935;28;20548;-61
2023/10/16 14:35:54;;;;;;;0.93;0.32;;;14.00;99.90;;;;;;5075161;28;20048;-53
2023/10/16 14:38:20;;;;;;;4.15;0.60;;;14.10;99.90;;;;;;5056988;28;20146;-54
2023/10/16 14:40:46;;;;;;;6.07;0.77;;;14.00;99.90;;;;;;5074555;28;20046;-55
2023/10/16 14:43:15;;;;;;;1.30;0.38;;;14.00;99.90;;;;;;5075040;28;20523;-54
2023/10/16 14:45:42;;;;;;;5.45;0.60;;;14.00;99.90;;;;;;5075004;28;20539;-54
2023/10/16 14:48:09;;;;;;;2.10;0.77;;;14.00;99.90;;;;;;5074671;28;20033;-55
2023/10/16 14:50:36;;;;;;;0.50;0.30;;;14.00;99.90;;;;;;5074559;28;20033;-49
2023/10/16 14:53:02;;;;;;;8.13;2.28;;;13.90;99.90;;;;;;5074620;28;20623;-53
2023/10/16 14:55:28;;;;;;;1.60;0.40;;;13.90;99.90;;;;;;5074051;28;20071;-54
2023/10/16 14:57:57;;;;;;;2.10;0.73;;;13.90;99.90;;;;;;5074348;28;20072;-52
2023/10/16 15:00:28;;;;;;;2.33;0.90;;;13.80;99.90;;;;;;5074662;28;20067;-51
2023/10/16 15:02:57;;;;;;;1.75;0.70;;;13.80;99.90;;;;;;5074610;28;20051;-49
2023/10/16 15:05:24;;;;;;;2.72;0.38;;;13.70;99.90;;;;;;5074507;28;20381;-54
2023/10/16 15:07:51;;;;;;;5.05;0.95;;;13.60;99.90;;;;;;5074134;28;20016;-51
2023/10/16 15:10:18;;;;;;;1.23;0.40;;;13.70;99.90;;;;;;5074425;28;20358;-51
2023/10/16 15:12:44;;;;;;;3.13;0.60;;;13.70;99.90;;;;;;5074075;28;20025;-52